createdAt,value
2018-09-01T00:01:18.846Z,13.57
2018-09-01T00:03:47.349Z,13.67
2018-09-01T00:06:16.283Z,13.45
2018-09-01T00:08:44.774Z,13.59
2018-09-01T00:11:14.407Z,13.65
2018-09-01T00:13:42.885Z,13.67
2018-09-01T00:16:11.630Z,13.53
2018-09-01T00:18:40.509Z,13.69
2018-09-01T00:21:09.266Z,13.69
2018-09-01T00:23:37.746Z,13.67
2018-09-01T00:26:06.587Z,13.63
2018-09-01T00:28:35.066Z,13.61
2018-09-01T00:31:03.519Z,13.47
2018-09-01T00:33:32.401Z,13.48
2018-09-01T00:36:01.665Z,13.48
2018-09-01T00:38:36.715Z,13.42
2018-09-01T00:41:05.413Z,13.16
2018-09-01T00:43:33.908Z,12.98
2018-09-01T00:46:02.371Z,13.06
2018-09-01T00:48:30.900Z,12.93
2018-09-01T00:50:59.408Z,13.00
2018-09-01T00:53:28.221Z,13.05
2018-09-01T00:55:56.677Z,13.29
2018-09-01T00:58:26.349Z,13.28
2018-09-01T01:00:55.171Z,13.26
2018-09-01T01:03:24.281Z,13.30
2018-09-01T01:05:53.785Z,13.26
2018-09-01T01:08:22.259Z,13.30
2018-09-01T01:10:51.384Z,13.19
2018-09-01T01:13:20.538Z,13.24
2018-09-01T01:15:48.969Z,13.13
2018-09-01T01:18:17.441Z,13.08
2018-09-01T01:20:46.153Z,12.96
2018-09-01T01:23:15.315Z,13.20
2018-09-01T01:25:44.033Z,13.01
2018-09-01T01:28:12.890Z,13.02
2018-09-01T01:30:41.408Z,12.94
2018-09-01T01:33:10.669Z,13.00
2018-09-01T01:35:40.020Z,12.86
2018-09-01T01:38:08.481Z,12.83
2018-09-01T01:40:37.292Z,12.01
2018-09-01T01:43:06.546Z,12.03
2018-09-01T01:45:35.108Z,12.12
2018-09-01T01:48:04.244Z,12.16
2018-09-01T01:50:32.766Z,12.33
2018-09-01T01:53:01.877Z,12.15
2018-09-01T01:55:30.413Z,12.08
2018-09-01T01:57:58.996Z,12.17
2018-09-01T02:00:28.063Z,12.25
2018-09-01T02:02:56.547Z,12.10
2018-09-01T02:05:31.444Z,11.97
2018-09-01T02:08:00.013Z,11.90
2018-09-01T02:10:29.666Z,12.03
2018-09-01T02:12:58.597Z,12.23
2018-09-01T02:15:27.522Z,12.14
2018-09-01T02:17:56.026Z,12.07
2018-09-01T02:20:24.530Z,12.08
2018-09-01T02:22:53.254Z,12.08
2018-09-01T02:25:22.039Z,12.19
2018-09-01T02:27:50.496Z,12.49
2018-09-01T02:30:19.048Z,12.21
2018-09-01T02:32:48.101Z,11.98
2018-09-01T02:35:17.340Z,11.83
2018-09-01T02:37:46.974Z,11.96
2018-09-01T02:40:15.516Z,11.97
2018-09-01T02:42:43.969Z,12.11
2018-09-01T02:45:12.735Z,12.12
2018-09-01T02:47:41.213Z,12.14
2018-09-01T02:50:09.742Z,12.17
2018-09-01T02:52:38.203Z,12.08
2018-09-01T02:55:07.845Z,12.19
2018-09-01T02:57:36.900Z,12.01
2018-09-01T03:00:11.580Z,11.98
2018-09-01T03:02:44.814Z,12.01
2018-09-01T03:05:16.011Z,12.10
2018-09-01T03:07:45.162Z,12.17
2018-09-01T03:10:13.900Z,12.23
2018-09-01T03:12:42.949Z,12.26
2018-09-01T03:15:11.684Z,12.37
2018-09-01T03:17:40.136Z,12.33
2018-09-01T03:20:08.675Z,12.22
2018-09-01T03:22:38.134Z,12.03
2018-09-01T03:25:07.359Z,12.02
2018-09-01T03:27:36.806Z,12.01
2018-09-01T03:30:06.405Z,11.99
2018-09-01T03:32:34.857Z,12.00
2018-09-01T03:35:04.620Z,11.99
2018-09-01T03:37:33.293Z,11.92
2018-09-01T03:40:01.749Z,12.00
2018-09-01T03:42:30.203Z,12.06
2018-09-01T03:45:00.135Z,11.97
2018-09-01T03:47:28.598Z,12.10
2018-09-01T03:49:57.592Z,11.98
2018-09-01T03:52:27.063Z,11.97
2018-09-01T03:54:55.863Z,11.96
2018-09-01T03:57:24.615Z,11.92
2018-09-01T03:59:53.079Z,12.02
2018-09-01T04:02:21.541Z,11.93
2018-09-01T04:04:50.029Z,11.88
2018-09-01T04:07:18.793Z,11.78
2018-09-01T04:09:47.299Z,11.64
2018-09-01T04:12:16.655Z,11.49
2018-09-01T04:14:45.705Z,11.60
2018-09-01T04:17:14.205Z,11.38
2018-09-01T04:19:42.673Z,11.49
2018-09-01T04:22:12.104Z,11.35
2018-09-01T04:24:41.214Z,11.25
2018-09-01T04:27:09.692Z,11.32
2018-09-01T04:29:38.574Z,11.26
2018-09-01T04:32:07.088Z,11.18
2018-09-01T04:34:35.574Z,11.11
2018-09-01T04:37:05.010Z,11.06
2018-09-01T04:39:33.481Z,11.12
2018-09-01T04:42:01.991Z,11.08
2018-09-01T04:44:31.765Z,11.17
2018-09-01T04:47:00.403Z,11.23
2018-09-01T04:49:28.871Z,11.24
2018-09-01T04:51:58.254Z,11.23
2018-09-01T04:54:27.137Z,11.21
2018-09-01T04:56:56.537Z,11.04
2018-09-01T04:59:25.432Z,10.92
2018-09-01T05:01:54.014Z,10.99
2018-09-01T05:04:22.776Z,10.94
2018-09-01T05:06:51.770Z,10.85
2018-09-01T05:09:21.546Z,10.89
2018-09-01T05:11:50.401Z,10.95
2018-09-01T05:14:18.885Z,10.99
2018-09-01T05:16:47.459Z,10.79
2018-09-01T05:19:16.374Z,10.79
2018-09-01T05:21:44.909Z,11.17
2018-09-01T05:24:13.359Z,11.38
2018-09-01T05:26:42.154Z,11.37
2018-09-01T05:29:11.036Z,11.39
2018-09-01T05:31:39.574Z,11.52
2018-09-01T05:34:08.086Z,11.49
2018-09-01T05:36:36.825Z,11.53
2018-09-01T05:39:07.733Z,11.48
2018-09-01T05:41:36.362Z,11.57
2018-09-01T05:44:04.961Z,11.56
2018-09-01T05:46:33.510Z,11.70
2018-09-01T05:49:02.005Z,11.80
2018-09-01T05:51:31.931Z,11.74
2018-09-01T05:54:00.388Z,11.84
2018-09-01T05:56:28.973Z,11.92
2018-09-01T05:58:57.465Z,11.89
2018-09-01T06:01:27.029Z,11.98
2018-09-01T06:03:55.595Z,11.93
2018-09-01T06:06:24.215Z,11.90
2018-09-01T06:08:52.695Z,12.00
2018-09-01T06:11:21.559Z,12.17
2018-09-01T06:13:51.453Z,12.32
2018-09-01T06:16:20.558Z,12.40
2018-09-01T06:18:49.371Z,12.30
2018-09-01T06:21:17.921Z,12.35
2018-09-01T06:23:46.389Z,12.43
2018-09-01T06:26:14.935Z,12.45
2018-09-01T06:28:47.779Z,12.61
2018-09-01T06:31:17.841Z,12.73
2018-09-01T06:33:46.317Z,12.82
2018-09-01T06:36:14.833Z,12.83
2018-09-01T06:38:43.336Z,12.87
2018-09-01T06:41:12.595Z,13.15
2018-09-01T06:43:41.064Z,13.00
2018-09-01T06:46:09.559Z,13.17
2018-09-01T06:48:38.058Z,12.80
2018-09-01T06:51:06.562Z,12.88
2018-09-01T06:53:35.067Z,13.19
2018-09-01T06:56:03.578Z,13.34
2018-09-01T06:58:32.645Z,13.51
2018-09-01T07:01:01.788Z,13.51
2018-09-01T07:03:31.009Z,13.62
2018-09-01T07:05:59.477Z,13.68
2018-09-01T07:08:27.959Z,13.57
2018-09-01T07:10:56.449Z,13.94
2018-09-01T07:13:24.990Z,13.95
2018-09-01T07:15:53.544Z,13.95
2018-09-01T07:18:22.321Z,14.19
2018-09-01T07:20:51.065Z,14.35
2018-09-01T07:23:19.993Z,14.65
2018-09-01T07:25:49.882Z,14.57
2018-09-01T07:28:19.245Z,14.78
2018-09-01T07:30:49.222Z,15.02
2018-09-01T07:33:17.916Z,14.88
2018-09-01T07:35:46.651Z,15.23
2018-09-01T07:38:15.389Z,15.39
2018-09-01T07:40:43.873Z,15.46
2018-09-01T07:43:13.051Z,15.53
2018-09-01T07:45:41.822Z,15.67
2018-09-01T07:48:10.348Z,15.76
2018-09-01T07:50:38.782Z,15.89
2018-09-01T07:53:07.311Z,16.10
2018-09-01T07:55:36.086Z,16.16
2018-09-01T07:58:04.624Z,16.07
2018-09-01T08:00:33.101Z,16.08
2018-09-01T08:03:01.866Z,16.36
2018-09-01T08:05:30.314Z,16.64
2018-09-01T08:07:58.823Z,16.60
2018-09-01T08:10:27.317Z,16.56
2018-09-01T08:12:55.816Z,16.65
2018-09-01T08:15:24.668Z,16.83
2018-09-01T08:17:53.418Z,17.01
2018-09-01T08:20:21.918Z,17.07
2018-09-01T08:22:50.503Z,17.32
2018-09-01T08:25:19.039Z,17.29
2018-09-01T08:27:50.697Z,17.27
2018-09-01T08:30:19.170Z,17.18
2018-09-01T08:32:47.779Z,17.35
2018-09-01T08:35:16.574Z,17.32
2018-09-01T08:37:45.151Z,17.31
2018-09-01T08:40:13.685Z,17.32
2018-09-01T08:42:42.474Z,17.41
2018-09-01T08:45:11.070Z,17.67
2018-09-01T08:47:40.284Z,17.76
2018-09-01T08:50:08.843Z,17.91
2018-09-01T08:52:37.348Z,17.93
2018-09-01T08:55:06.170Z,17.94
2018-09-01T08:57:35.450Z,17.91
2018-09-01T09:00:05.230Z,18.10
2018-09-01T09:02:35.144Z,18.41
2018-09-01T09:05:04.185Z,18.49
2018-09-01T09:07:33.879Z,18.68
2018-09-01T09:10:02.601Z,18.45
2018-09-01T09:12:31.075Z,18.76
2018-09-01T09:15:00.650Z,18.74
2018-09-01T09:17:29.259Z,18.97
2018-09-01T09:19:59.073Z,19.10
2018-09-01T09:22:27.562Z,19.11
2018-09-01T09:24:56.077Z,19.13
2018-09-01T09:27:24.574Z,18.83
2018-09-01T09:29:53.959Z,19.24
2018-09-01T09:32:22.412Z,18.94
2018-09-01T09:34:50.903Z,19.15
2018-09-01T09:37:19.391Z,19.60
2018-09-01T09:39:49.174Z,19.62
2018-09-01T09:42:18.022Z,19.79
2018-09-01T09:44:46.542Z,19.77
2018-09-01T09:47:14.988Z,20.03
2018-09-01T09:49:45.333Z,20.27
2018-09-01T09:52:14.524Z,20.29
2018-09-01T09:54:43.076Z,20.23
2018-09-01T09:57:11.592Z,20.72
2018-09-01T09:59:40.092Z,20.88
2018-09-01T10:02:08.989Z,20.80
2018-09-01T10:04:37.458Z,20.76
2018-09-01T10:07:06.570Z,20.97
2018-09-01T10:09:35.442Z,21.34
2018-09-01T10:12:03.921Z,21.22
2018-09-01T10:14:32.421Z,20.91
2018-09-01T10:17:00.907Z,21.09
2018-09-01T10:19:30.016Z,20.98
2018-09-01T10:21:58.493Z,21.16
2018-09-01T10:24:27.060Z,21.56
2018-09-01T10:26:55.794Z,21.31
2018-09-01T10:29:24.599Z,21.39
2018-09-01T10:31:53.944Z,22.26
2018-09-01T10:34:22.526Z,21.96
2018-09-01T10:36:51.348Z,21.61
2018-09-01T10:39:20.140Z,21.43
2018-09-01T10:41:59.593Z,21.74
2018-09-01T10:44:28.072Z,21.83
2018-09-01T10:46:56.798Z,22.18
2018-09-01T10:49:25.830Z,22.19
2018-09-01T10:51:56.280Z,22.17
2018-09-01T10:54:24.884Z,22.57
2018-09-01T10:56:53.354Z,22.86
2018-09-01T10:59:21.954Z,23.07
2018-09-01T11:01:50.834Z,22.81
2018-09-01T11:04:19.580Z,23.36
2018-09-01T11:06:48.190Z,23.17
2018-09-01T11:09:17.223Z,22.87
2018-09-01T11:11:46.417Z,22.90
2018-09-01T11:14:15.538Z,22.64
2018-09-01T11:16:44.473Z,23.44
2018-09-01T11:19:13.196Z,23.30
2018-09-01T11:21:42.541Z,22.96
2018-09-01T11:24:11.057Z,23.59
2018-09-01T11:26:40.067Z,22.98
2018-09-01T11:29:09.365Z,23.75
2018-09-01T11:31:38.478Z,23.53
2018-09-01T11:34:06.981Z,23.50
2018-09-01T11:36:35.841Z,23.68
2018-09-01T11:39:06.682Z,24.24
2018-09-01T11:41:35.205Z,24.55
2018-09-01T11:44:05.056Z,24.37
2018-09-01T11:46:33.531Z,23.79
2018-09-01T11:49:02.015Z,24.35
2018-09-01T11:51:30.957Z,24.63
2018-09-01T11:53:59.459Z,24.76
2018-09-01T11:56:28.245Z,24.31
2018-09-01T11:58:57.737Z,24.46
2018-09-01T12:01:26.443Z,24.73
2018-09-01T12:03:55.252Z,25.26
2018-09-01T12:06:23.771Z,25.47
2018-09-01T12:08:53.026Z,25.93
2018-09-01T12:11:21.796Z,25.88
2018-09-01T12:13:50.551Z,25.21
2018-09-01T12:16:19.482Z,25.68
2018-09-01T12:18:48.213Z,26.34
2018-09-01T12:21:16.799Z,26.23
2018-09-01T12:23:45.259Z,26.04
2018-09-01T12:26:14.047Z,26.29
2018-09-01T12:28:43.311Z,26.86
2018-09-01T12:31:13.248Z,25.67
2018-09-01T12:33:42.765Z,25.11
2018-09-01T12:36:11.865Z,24.71
2018-09-01T12:38:40.805Z,24.61
2018-09-01T12:41:09.363Z,25.11
2018-09-01T12:43:38.082Z,26.07
2018-09-01T12:46:07.369Z,26.18
2018-09-01T12:48:35.870Z,26.38
2018-09-01T12:51:04.721Z,26.08
2018-09-01T12:53:33.975Z,26.02
2018-09-01T12:56:02.537Z,26.74
2018-09-01T12:58:32.397Z,26.03
2018-09-01T13:01:02.107Z,26.90
2018-09-01T13:03:31.314Z,27.06
2018-09-01T13:05:59.819Z,27.51
2018-09-01T13:08:30.491Z,27.54
2018-09-01T13:10:59.841Z,27.70
2018-09-01T13:13:28.338Z,25.92
2018-09-01T13:15:57.047Z,26.82
2018-09-01T13:18:25.594Z,26.98
2018-09-01T13:20:54.600Z,27.25
2018-09-01T13:23:23.335Z,27.47
2018-09-01T13:25:52.769Z,27.34
2018-09-01T13:28:21.237Z,27.09
2018-09-01T13:30:50.813Z,27.70
2018-09-01T13:33:19.946Z,28.01
2018-09-01T13:35:48.442Z,26.76
2018-09-01T13:38:17.414Z,27.33
2018-09-01T13:40:45.919Z,27.54
2018-09-01T13:43:14.733Z,28.44
2018-09-01T13:45:43.239Z,27.74
2018-09-01T13:48:12.296Z,28.01
2018-09-01T13:50:41.144Z,28.25
2018-09-01T13:53:09.663Z,28.47
2018-09-01T13:55:39.216Z,28.19
2018-09-01T13:58:08.197Z,28.76
2018-09-01T14:00:37.006Z,29.45
2018-09-01T14:03:06.925Z,29.54
2018-09-01T14:05:35.476Z,29.58
2018-09-01T14:08:05.979Z,29.34
2018-09-01T14:10:36.346Z,29.58
2018-09-01T14:13:05.747Z,28.92
2018-09-01T14:15:35.317Z,29.18
2018-09-01T14:18:04.293Z,29.46
2018-09-01T14:20:33.619Z,29.48
2018-09-01T14:23:02.163Z,29.85
2018-09-01T14:25:31.711Z,29.92
2018-09-01T14:28:00.485Z,30.00
2018-09-01T14:30:29.821Z,28.61
2018-09-01T14:32:58.382Z,28.67
2018-09-01T14:35:27.860Z,28.32
2018-09-01T14:37:57.273Z,28.61
2018-09-01T14:40:25.728Z,28.19
2018-09-01T14:42:54.909Z,27.77
2018-09-01T14:45:23.443Z,28.83
2018-09-01T14:47:52.596Z,28.98
2018-09-01T14:50:21.476Z,29.14
2018-09-01T14:52:50.900Z,29.41
2018-09-01T14:55:19.909Z,29.40
2018-09-01T14:57:49.258Z,28.91
2018-09-01T15:00:17.825Z,29.24
2018-09-01T15:02:46.369Z,29.58
2018-09-01T15:05:14.839Z,28.30
2018-09-01T15:07:43.680Z,29.13
2018-09-01T15:10:12.602Z,29.02
2018-09-01T15:12:41.122Z,29.47
2018-09-01T15:15:09.747Z,29.11
2018-09-01T15:17:38.515Z,28.90
2018-09-01T15:20:07.424Z,28.38
2018-09-01T15:22:36.722Z,28.55
2018-09-01T15:25:05.281Z,28.09
2018-09-01T15:27:35.223Z,28.60
2018-09-01T15:30:04.262Z,29.45
2018-09-01T15:32:32.782Z,29.45
2018-09-01T15:35:01.713Z,29.25
2018-09-01T15:37:30.754Z,29.85
2018-09-01T15:40:00.091Z,30.70
2018-09-01T15:42:28.986Z,30.40
2018-09-01T15:44:58.414Z,30.43
2018-09-01T15:47:26.920Z,30.32
2018-09-01T15:49:55.405Z,30.39
2018-09-01T15:52:24.243Z,30.41
2018-09-01T15:54:52.684Z,30.06
2018-09-01T15:57:21.753Z,30.31
2018-09-01T16:02:19.922Z,30.40
2018-09-01T16:04:48.772Z,30.95
2018-09-01T16:07:17.255Z,30.75
2018-09-01T16:09:45.719Z,30.75
2018-09-01T16:12:15.063Z,30.63
2018-09-01T16:14:44.280Z,30.44
2018-09-01T16:17:12.744Z,30.00
2018-09-01T16:19:41.744Z,29.56
2018-09-01T16:22:10.961Z,30.09
2018-09-01T16:24:40.444Z,30.13
2018-09-01T16:27:08.888Z,30.66
2018-09-01T16:29:37.783Z,30.61
2018-09-01T16:32:06.465Z,30.38
2018-09-01T16:34:35.446Z,30.20
2018-09-01T16:37:05.612Z,30.59
2018-09-01T16:39:35.014Z,30.36
2018-09-01T16:42:03.525Z,30.38
2018-09-01T16:44:32.029Z,29.69
2018-09-01T16:47:00.557Z,30.17
2018-09-01T16:49:29.889Z,29.98
2018-09-01T16:51:59.637Z,29.36
2018-09-01T16:54:28.471Z,29.80
2018-09-01T16:56:57.300Z,29.78
2018-09-01T16:59:25.775Z,29.08
2018-09-01T17:01:54.484Z,29.96
2018-09-01T17:04:22.997Z,29.97
2018-09-01T17:06:51.474Z,30.01
2018-09-01T17:09:23.914Z,30.44
2018-09-01T17:11:52.364Z,29.62
2018-09-01T17:14:22.452Z,29.92
2018-09-01T17:16:51.378Z,29.44
2018-09-01T17:19:20.229Z,29.22
2018-09-01T17:21:48.974Z,29.40
2018-09-01T17:24:18.422Z,29.01
2018-09-01T17:26:47.233Z,28.63
2018-09-01T17:29:15.724Z,28.14
2018-09-01T17:31:44.459Z,27.85
2018-09-01T17:34:13.392Z,27.33
2018-09-01T17:36:42.155Z,27.18
2018-09-01T17:39:12.622Z,27.14
2018-09-01T17:41:42.020Z,26.93
2018-09-01T17:44:13.210Z,26.73
2018-09-01T17:46:41.700Z,26.80
2018-09-01T17:49:10.527Z,26.38
2018-09-01T17:51:39.576Z,26.40
2018-09-01T17:54:09.492Z,26.36
2018-09-01T17:56:38.274Z,26.12
2018-09-01T17:59:06.776Z,25.69
2018-09-01T18:01:35.930Z,25.41
2018-09-01T18:04:04.392Z,25.04
2018-09-01T18:06:32.894Z,24.80
2018-09-01T18:09:01.374Z,24.65
2018-09-01T18:11:30.097Z,24.41
2018-09-01T18:13:59.197Z,24.10
2018-09-01T18:16:28.143Z,23.88
2018-09-01T18:18:56.645Z,23.60
2018-09-01T18:21:25.138Z,23.51
2018-09-01T18:23:55.510Z,23.19
2018-09-01T18:26:23.992Z,23.19
2018-09-01T18:28:53.030Z,23.05
2018-09-01T18:31:21.892Z,22.85
2018-09-01T18:33:50.765Z,22.71
2018-09-01T18:36:19.665Z,22.74
2018-09-01T18:38:48.179Z,22.50
2018-09-01T18:41:17.491Z,22.38
2018-09-01T18:43:46.350Z,21.99
2018-09-01T18:46:16.846Z,22.11
2018-09-01T18:48:45.556Z,21.70
2018-09-01T18:51:14.025Z,21.58
2018-09-01T18:53:42.919Z,20.93
2018-09-01T18:56:11.429Z,21.41
2018-09-01T18:58:39.906Z,21.10
2018-09-01T19:01:09.710Z,20.92
2018-09-01T19:03:38.313Z,20.53
2018-09-01T19:06:07.204Z,20.75
2018-09-01T19:08:36.104Z,20.68
2018-09-01T19:11:04.599Z,20.68
2018-09-01T19:13:33.592Z,20.56
2018-09-01T19:16:02.316Z,20.64
2018-09-01T19:18:30.907Z,20.42
2018-09-01T19:20:59.473Z,20.47
2018-09-01T19:23:27.938Z,20.54
2018-09-01T19:25:56.805Z,20.38
2018-09-01T19:28:25.504Z,20.34
2018-09-01T19:30:54.689Z,20.44
2018-09-01T19:33:24.796Z,20.45
2018-09-01T19:35:53.650Z,20.38
2018-09-01T19:38:22.476Z,20.37
2018-09-01T19:40:50.957Z,20.32
2018-09-01T19:43:19.432Z,20.38
2018-09-01T19:45:47.900Z,20.33
2018-09-01T19:48:16.385Z,20.32
2018-09-01T19:50:46.405Z,20.19
2018-09-01T19:53:15.095Z,20.03
2018-09-01T19:55:44.184Z,20.00
2018-09-01T19:58:12.981Z,19.57
2018-09-01T20:00:42.649Z,19.73
2018-09-01T20:03:11.340Z,19.69
2018-09-01T20:05:40.207Z,19.80
2018-09-01T20:08:10.366Z,19.72
2018-09-01T20:10:38.878Z,19.71
2018-09-01T20:13:08.102Z,19.62
2018-09-01T20:15:37.295Z,19.44
2018-09-01T20:18:07.163Z,19.42
2018-09-01T20:20:36.040Z,19.28
2018-09-01T20:23:05.991Z,19.34
2018-09-01T20:25:34.518Z,19.34
2018-09-01T20:28:03.186Z,19.24
2018-09-01T20:30:31.701Z,19.18
2018-09-01T20:33:00.877Z,19.15
2018-09-01T20:35:35.261Z,19.03
2018-09-01T20:38:04.674Z,19.07
2018-09-01T20:40:33.365Z,18.99
2018-09-01T20:43:02.237Z,18.68
2018-09-01T20:45:30.728Z,18.75
2018-09-01T20:47:59.769Z,18.68
2018-09-01T20:50:29.288Z,18.59
2018-09-01T20:52:58.076Z,18.14
2018-09-01T20:55:26.949Z,18.18
2018-09-01T20:57:55.408Z,17.73
2018-09-01T21:00:24.329Z,17.83
2018-09-01T21:02:52.855Z,17.87
2018-09-01T21:05:22.650Z,17.80
2018-09-01T21:07:51.536Z,17.76
2018-09-01T21:10:21.242Z,17.77
2018-09-01T21:12:49.676Z,17.51
2018-09-01T21:15:18.174Z,17.67
2018-09-01T21:17:47.073Z,17.62
2018-09-01T21:20:15.574Z,17.64
2018-09-01T21:22:44.144Z,17.50
2018-09-01T21:25:12.668Z,17.65
2018-09-01T21:27:41.653Z,17.73
2018-09-01T21:30:10.569Z,17.80
2018-09-01T21:32:39.106Z,17.44
2018-09-01T21:35:07.582Z,17.37
2018-09-01T21:37:36.572Z,17.26
2018-09-01T21:40:05.682Z,17.41
2018-09-01T21:42:34.424Z,17.27
2018-09-01T21:45:03.114Z,17.48
2018-09-01T21:47:31.701Z,17.21
2018-09-01T21:50:00.512Z,17.27
2018-09-01T21:52:29.825Z,17.25
2018-09-01T21:54:59.228Z,17.14
2018-09-01T21:57:28.219Z,17.11
2018-09-01T21:59:57.684Z,17.19
2018-09-01T22:02:26.889Z,17.19
2018-09-01T22:05:00.863Z,16.99
2018-09-01T22:07:29.369Z,16.85
2018-09-01T22:09:57.932Z,16.49
2018-09-01T22:12:26.855Z,16.25
2018-09-01T22:14:56.274Z,16.22
2018-09-01T22:17:26.144Z,16.19
2018-09-01T22:19:54.622Z,16.07
2018-09-01T22:22:24.084Z,16.23
2018-09-01T22:24:53.517Z,16.19
2018-09-01T22:27:22.833Z,16.25
2018-09-01T22:29:51.301Z,16.12
2018-09-01T22:32:20.462Z,15.89
2018-09-01T22:34:48.924Z,16.03
2018-09-01T22:37:18.458Z,16.03
2018-09-01T22:39:46.948Z,15.80
2018-09-01T22:42:15.907Z,16.00
2018-09-01T22:44:44.710Z,15.92
2018-09-01T22:47:21.765Z,16.03
2018-09-01T22:49:51.048Z,16.13
2018-09-01T22:52:19.563Z,16.03
2018-09-01T22:54:48.035Z,16.09
2018-09-01T22:57:16.538Z,16.09
2018-09-01T22:59:45.093Z,16.02
2018-09-01T23:02:14.341Z,16.05
2018-09-01T23:04:43.305Z,15.90
2018-09-01T23:07:12.158Z,15.74
2018-09-01T23:09:42.433Z,15.89
2018-09-01T23:12:11.365Z,15.80
2018-09-01T23:14:40.160Z,15.85
2018-09-01T23:17:08.666Z,15.73
2018-09-01T23:19:37.436Z,15.90
2018-09-01T23:22:05.962Z,15.72
2018-09-01T23:24:35.185Z,15.72
2018-09-01T23:27:04.375Z,15.63
2018-09-01T23:29:33.777Z,15.63
2018-09-01T23:32:03.065Z,15.57
2018-09-01T23:34:31.909Z,15.48
2018-09-01T23:37:01.062Z,15.44
2018-09-01T23:39:29.543Z,15.45
2018-09-01T23:41:58.423Z,15.44
2018-09-01T23:44:26.882Z,15.56
2018-09-01T23:46:55.357Z,15.39
2018-09-01T23:49:25.487Z,15.05
2018-09-01T23:51:54.245Z,15.17
2018-09-01T23:54:22.714Z,15.06
2018-09-01T23:56:52.174Z,15.05
2018-09-01T23:59:20.633Z,15.04
